createdAt,value
2022-08-25T00:02:12.270Z,5.30
2022-08-25T00:04:38.716Z,5.05
2022-08-25T00:07:07.527Z,5.35
2022-08-25T00:09:35.218Z,5.20
2022-08-25T00:12:02.283Z,5.20
2022-08-25T00:14:33.452Z,5.22
2022-08-25T00:17:00.372Z,5.40
2022-08-25T00:19:31.579Z,5.10
2022-08-25T00:21:58.179Z,5.00
2022-08-25T00:24:25.195Z,5.10
2022-08-25T00:26:55.178Z,5.30
2022-08-25T00:29:23.005Z,5.10
2022-08-25T00:31:49.450Z,5.00
2022-08-25T00:34:21.612Z,4.77
2022-08-25T00:36:51.787Z,4.95
2022-08-25T00:39:21.034Z,4.90
2022-08-25T00:41:49.080Z,4.50
2022-08-25T00:44:18.749Z,4.57
2022-08-25T00:46:51.670Z,5.30
2022-08-25T00:49:29.155Z,4.80
2022-08-25T00:52:17.845Z,4.88
2022-08-25T00:54:54.731Z,4.60
2022-08-25T00:57:34.306Z,5.00
2022-08-25T01:00:05.823Z,4.70
2022-08-25T01:02:32.347Z,4.75
2022-08-25T01:04:59.280Z,4.63
2022-08-25T01:07:25.814Z,4.85
2022-08-25T01:09:53.325Z,5.10
2022-08-25T01:12:20.421Z,4.70
2022-08-25T01:14:47.776Z,4.50
2022-08-25T01:17:14.627Z,4.40
2022-08-25T01:19:41.939Z,4.60
2022-08-25T01:22:08.561Z,5.20
2022-08-25T01:24:50.783Z,4.73
2022-08-25T01:27:17.207Z,4.80
2022-08-25T01:29:43.626Z,4.80
2022-08-25T01:32:13.275Z,4.47
2022-08-25T01:34:44.908Z,4.80
2022-08-25T01:37:13.919Z,4.73
2022-08-25T01:39:42.584Z,4.72
2022-08-25T01:42:14.408Z,4.97
2022-08-25T01:44:44.999Z,4.30
2022-08-25T01:47:12.404Z,4.85
2022-08-25T01:49:38.813Z,4.63
2022-08-25T01:52:20.454Z,4.30
2022-08-25T01:54:47.907Z,4.45
2022-08-25T01:57:15.612Z,4.60
2022-08-25T01:59:42.139Z,4.43
2022-08-25T02:02:09.077Z,4.73
2022-08-25T02:04:37.755Z,4.50
2022-08-25T02:07:07.888Z,4.80
2022-08-25T02:09:35.772Z,4.53
2022-08-25T02:12:02.633Z,4.53
2022-08-25T02:14:29.046Z,4.37
2022-08-25T02:16:55.871Z,4.55
2022-08-25T02:19:24.598Z,4.57
2022-08-25T02:21:51.311Z,4.28
2022-08-25T02:24:18.787Z,4.28
2022-08-25T02:26:45.270Z,4.67
2022-08-25T02:29:12.097Z,4.65
2022-08-25T02:31:39.376Z,4.30
2022-08-25T02:34:07.871Z,4.13
2022-08-25T02:36:34.507Z,4.20
2022-08-25T02:39:01.161Z,4.30
2022-08-25T02:41:31.443Z,4.60
2022-08-25T02:43:59.966Z,4.60
2022-08-25T02:46:27.227Z,4.18
2022-08-25T02:48:53.963Z,4.57
2022-08-25T02:51:22.403Z,4.57
2022-08-25T02:53:49.283Z,4.20
2022-08-25T02:56:18.608Z,4.30
2022-08-25T02:58:45.906Z,4.60
2022-08-25T03:01:13.249Z,4.38
2022-08-25T03:03:42.177Z,4.63
2022-08-25T03:06:12.539Z,4.63
2022-08-25T03:08:40.295Z,4.40
2022-08-25T03:11:07.140Z,4.50
2022-08-25T03:13:34.870Z,4.43
2022-08-25T03:16:03.009Z,4.67
2022-08-25T03:18:30.314Z,4.40
2022-08-25T03:20:57.376Z,4.47
2022-08-25T03:23:23.856Z,4.93
2022-08-25T03:26:09.216Z,4.93
2022-08-25T03:28:36.436Z,4.60
2022-08-25T03:31:03.216Z,4.70
2022-08-25T03:33:31.026Z,4.72
2022-08-25T03:35:59.153Z,4.45
2022-08-25T03:38:26.418Z,4.57
2022-08-25T03:40:53.481Z,4.77
2022-08-25T03:43:20.587Z,4.68
2022-08-25T03:45:47.858Z,4.85
2022-08-25T03:48:16.086Z,4.30
2022-08-25T03:50:50.629Z,4.78
2022-08-25T03:53:18.838Z,4.83
2022-08-25T03:55:45.220Z,5.03
2022-08-25T03:58:12.350Z,5.00
2022-08-25T04:00:39.219Z,4.90
2022-08-25T04:03:05.773Z,5.10
2022-08-25T04:05:32.231Z,4.47
2022-08-25T04:08:01.821Z,5.25
2022-08-25T04:10:28.691Z,5.53
2022-08-25T04:12:55.937Z,5.43
2022-08-25T04:15:22.418Z,5.47
2022-08-25T04:17:48.809Z,5.37
2022-08-25T04:20:18.913Z,5.20
2022-08-25T04:22:45.455Z,5.15
2022-08-25T04:25:12.265Z,5.22
2022-08-25T04:27:38.696Z,5.53
2022-08-25T04:30:06.692Z,5.20
2022-08-25T04:32:33.368Z,4.90
2022-08-25T04:34:59.965Z,5.60
2022-08-25T04:37:26.511Z,5.50
2022-08-25T04:39:53.124Z,5.45
2022-08-25T04:42:20.341Z,5.20
2022-08-25T04:44:46.722Z,5.68
2022-08-25T04:47:13.339Z,5.78
2022-08-25T04:49:39.928Z,5.82
2022-08-25T04:52:12.955Z,5.88
2022-08-25T04:54:41.184Z,5.80
2022-08-25T04:57:07.929Z,6.20
2022-08-25T04:59:34.371Z,5.80
2022-08-25T05:02:05.613Z,5.85
2022-08-25T05:04:34.421Z,6.10
2022-08-25T05:07:01.274Z,6.10
2022-08-25T05:09:28.348Z,6.32
2022-08-25T05:11:55.155Z,5.90
2022-08-25T05:14:25.618Z,5.95
2022-08-25T05:16:57.962Z,6.68
2022-08-25T05:19:25.190Z,6.30
2022-08-25T05:21:52.091Z,6.50
2022-08-25T05:24:19.379Z,6.05
2022-08-25T05:26:45.914Z,6.60
2022-08-25T05:29:12.628Z,6.22
2022-08-25T05:31:43.118Z,6.20
2022-08-25T05:34:12.038Z,6.32
2022-08-25T05:36:43.053Z,6.95
2022-08-25T05:39:10.150Z,6.75
2022-08-25T05:41:37.099Z,7.13
2022-08-25T05:44:03.784Z,7.20
2022-08-25T05:46:30.467Z,7.53
2022-08-25T05:48:58.859Z,6.75
2022-08-25T05:51:26.721Z,7.25
2022-08-25T05:53:53.268Z,7.20
2022-08-25T05:56:20.032Z,7.37
2022-08-25T05:58:47.131Z,7.40
2022-08-25T06:01:45.091Z,7.13
2022-08-25T06:04:12.586Z,7.28
2022-08-25T06:06:39.954Z,8.02
2022-08-25T06:09:08.661Z,6.80
2022-08-25T06:11:36.384Z,7.07
2022-08-25T06:14:02.795Z,7.60
2022-08-25T06:16:29.239Z,7.63
2022-08-25T06:18:55.720Z,7.93
2022-08-25T06:21:22.184Z,7.23
2022-08-25T06:23:49.227Z,7.88
2022-08-25T06:26:21.214Z,7.35
2022-08-25T06:28:48.920Z,7.35
2022-08-25T06:31:15.420Z,7.43
2022-08-25T06:33:41.936Z,7.53
2022-08-25T06:36:08.895Z,7.25
2022-08-25T06:38:36.065Z,7.55
2022-08-25T06:41:05.339Z,7.32
2022-08-25T06:43:33.769Z,7.63
2022-08-25T06:46:17.825Z,7.43
2022-08-25T06:48:44.372Z,7.55
2022-08-25T06:51:14.147Z,7.47
2022-08-25T06:53:40.922Z,7.43
2022-08-25T06:56:07.386Z,7.35
2022-08-25T06:58:34.423Z,7.43
2022-08-25T07:01:19.709Z,7.38
2022-08-25T07:03:46.876Z,7.13
2022-08-25T07:06:14.288Z,7.03
2022-08-25T07:08:43.002Z,7.30
2022-08-25T07:11:16.364Z,7.33
2022-08-25T07:13:44.011Z,7.25
2022-08-25T07:16:11.403Z,6.75
2022-08-25T07:18:38.536Z,6.40
2022-08-25T07:21:05.191Z,7.07
2022-08-25T07:23:36.052Z,6.80
2022-08-25T07:26:33.608Z,6.03
2022-08-25T07:28:59.690Z,6.30
2022-08-25T07:31:27.116Z,6.20
2022-08-25T07:34:14.388Z,6.25
2022-08-25T07:36:42.988Z,5.77
2022-08-25T07:39:09.427Z,5.72
2022-08-25T07:41:41.612Z,5.30
2022-08-25T07:44:10.391Z,5.55
2022-08-25T07:46:37.521Z,5.68
2022-08-25T07:49:04.177Z,5.20
2022-08-25T07:51:44.179Z,5.45
2022-08-25T07:54:34.284Z,5.45
2022-08-25T07:57:02.055Z,5.60
2022-08-25T07:59:28.931Z,5.45
2022-08-25T08:01:55.400Z,5.97
2022-08-25T08:04:22.289Z,5.22
2022-08-25T08:06:48.739Z,5.43
2022-08-25T08:09:16.148Z,5.20
2022-08-25T08:11:51.487Z,5.40
2022-08-25T08:14:20.523Z,5.17
2022-08-25T08:16:47.009Z,5.03
2022-08-25T08:19:13.505Z,5.70
2022-08-25T08:21:40.467Z,5.90
2022-08-25T08:24:14.805Z,5.85
2022-08-25T08:26:59.048Z,5.17
2022-08-25T08:29:26.314Z,5.15
2022-08-25T08:31:53.343Z,5.20
2022-08-25T08:34:19.868Z,5.28
2022-08-25T08:36:51.446Z,5.35
2022-08-25T08:39:17.936Z,5.00
2022-08-25T08:42:19.662Z,5.15
2022-08-25T08:44:47.814Z,5.13
2022-08-25T08:47:23.381Z,5.10
2022-08-25T08:50:04.984Z,5.00
2022-08-25T08:52:38.406Z,4.80
2022-08-25T08:55:11.992Z,4.95
2022-08-25T09:00:19.123Z,4.57
2022-08-25T09:03:07.153Z,4.65
2022-08-25T09:05:47.318Z,4.63
2022-08-25T09:08:20.391Z,4.57
2022-08-25T09:10:57.540Z,4.80
2022-08-25T09:13:45.437Z,4.80
2022-08-25T09:16:54.698Z,4.63
2022-08-25T09:19:24.868Z,4.47
2022-08-25T09:22:35.074Z,4.60
2022-08-25T09:25:22.090Z,4.63
2022-08-25T09:28:13.208Z,4.65
2022-08-25T09:30:53.628Z,4.85
2022-08-25T09:33:23.197Z,4.80
2022-08-25T09:35:53.607Z,4.57
2022-08-25T09:38:20.657Z,4.70
2022-08-25T09:40:53.756Z,4.68
2022-08-25T09:43:42.162Z,4.65
2022-08-25T09:46:08.546Z,5.17
2022-08-25T09:48:44.065Z,4.90
2022-08-25T09:51:42.470Z,4.30
2022-08-25T09:54:15.351Z,4.90
2022-08-25T09:57:27.607Z,4.30
2022-08-25T09:59:57.678Z,4.03
2022-08-25T10:02:28.419Z,4.10
2022-08-25T10:04:56.037Z,4.40
2022-08-25T10:07:35.565Z,3.40
2022-08-25T10:10:14.503Z,3.92
2022-08-25T10:12:51.215Z,3.83
2022-08-25T10:15:29.598Z,4.30
2022-08-25T10:18:18.127Z,4.32
2022-08-25T10:21:00.543Z,4.15
2022-08-25T10:23:27.408Z,3.60
2022-08-25T10:26:03.736Z,4.47
2022-08-25T10:28:55.512Z,4.35
2022-08-25T10:31:28.694Z,4.47
2022-08-25T10:34:01.721Z,4.10
2022-08-25T10:36:42.783Z,4.10
2022-08-25T10:39:33.829Z,3.93
2022-08-25T10:42:19.768Z,3.85
2022-08-25T10:45:25.367Z,3.95
2022-08-25T10:48:31.102Z,3.80
2022-08-25T10:51:14.584Z,4.15
2022-08-25T10:53:52.445Z,3.90
2022-08-25T10:56:24.581Z,3.40
2022-08-25T10:59:26.713Z,4.30
2022-08-25T11:02:23.911Z,3.65
2022-08-25T11:05:24.776Z,3.85
2022-08-25T11:07:58.516Z,3.90
2022-08-25T11:10:34.319Z,4.10
2022-08-25T11:13:07.585Z,4.13
2022-08-25T11:16:15.458Z,4.10
2022-08-25T11:18:46.513Z,3.80
2022-08-25T11:21:20.380Z,3.73
2022-08-25T11:24:14.093Z,3.60
2022-08-25T11:26:45.754Z,3.85
2022-08-25T11:29:16.541Z,3.90
2022-08-25T11:31:54.034Z,3.75
2022-08-25T11:34:22.189Z,3.63
2022-08-25T11:36:57.601Z,3.88
2022-08-25T11:39:59.465Z,3.78
2022-08-25T11:42:57.612Z,3.85
2022-08-25T11:45:56.267Z,3.65
2022-08-25T11:48:30.043Z,3.53
2022-08-25T11:51:11.803Z,4.10
2022-08-25T11:53:42.628Z,3.80
2022-08-25T11:56:12.582Z,4.00
2022-08-25T11:58:53.054Z,3.92
2022-08-25T12:01:32.422Z,4.23
2022-08-25T12:04:14.824Z,3.75
2022-08-25T12:07:06.296Z,3.83
2022-08-25T12:09:54.908Z,3.92
2022-08-25T12:12:31.260Z,3.85
2022-08-25T12:15:19.972Z,3.80
2022-08-25T12:18:18.811Z,4.10
2022-08-25T12:20:57.453Z,3.88
2022-08-25T12:23:31.777Z,3.85
2022-08-25T12:26:04.879Z,3.65
2022-08-25T12:28:40.716Z,3.30
2022-08-25T12:31:21.036Z,3.70
2022-08-25T12:34:17.299Z,3.78
2022-08-25T12:36:58.098Z,3.38
2022-08-25T12:39:32.001Z,3.65
2022-08-25T12:42:05.721Z,3.80
2022-08-25T12:44:45.488Z,3.83
2022-08-25T12:47:27.067Z,4.00
2022-08-25T12:50:14.111Z,3.63
2022-08-25T12:52:40.883Z,4.40
2022-08-25T12:55:11.861Z,3.90
2022-08-25T12:57:50.612Z,3.70
2022-08-25T13:00:23.460Z,4.05
2022-08-25T13:03:27.031Z,3.90
2022-08-25T13:06:20.000Z,3.50
2022-08-25T13:09:17.479Z,3.97
2022-08-25T13:11:56.549Z,3.80
2022-08-25T13:14:34.630Z,3.97
2022-08-25T13:17:05.637Z,3.70
2022-08-25T13:19:34.735Z,4.10
2022-08-25T13:22:15.531Z,3.50
2022-08-25T13:24:45.328Z,3.65
2022-08-25T13:27:28.036Z,3.88
2022-08-25T13:29:59.773Z,4.05
2022-08-25T13:32:35.450Z,4.07
2022-08-25T13:35:17.794Z,4.20
2022-08-25T13:37:46.929Z,3.80
2022-08-25T13:40:19.386Z,3.70
2022-08-25T13:42:55.625Z,3.65
2022-08-25T13:45:26.223Z,3.35
2022-08-25T13:47:55.834Z,3.70
2022-08-25T13:50:26.833Z,3.88
2022-08-25T13:53:05.752Z,3.78
2022-08-25T13:55:38.409Z,3.95
2022-08-25T13:58:24.638Z,3.40
2022-08-25T14:01:47.507Z,3.90
2022-08-25T14:04:51.606Z,3.85
2022-08-25T14:07:34.059Z,3.90
2022-08-25T14:10:08.017Z,3.60
2022-08-25T14:12:45.379Z,3.47
2022-08-25T14:15:17.746Z,3.90
2022-08-25T14:17:48.912Z,3.70
2022-08-25T14:20:28.738Z,4.55
2022-08-25T14:22:58.336Z,4.10
2022-08-25T14:25:27.941Z,4.10
2022-08-25T14:28:16.479Z,3.90
2022-08-25T14:30:51.756Z,4.30
2022-08-25T14:33:21.297Z,4.00
2022-08-25T14:35:51.003Z,3.70
2022-08-25T14:38:18.023Z,4.28
2022-08-25T14:40:44.863Z,4.07
2022-08-25T14:43:12.404Z,3.83
2022-08-25T14:45:41.965Z,4.10
2022-08-25T14:48:17.939Z,4.32
2022-08-25T14:50:45.345Z,4.30
2022-08-25T14:53:12.092Z,4.30
2022-08-25T14:55:39.835Z,4.18
2022-08-25T14:58:06.914Z,4.40
2022-08-25T15:00:37.128Z,4.25
2022-08-25T15:03:03.958Z,5.60
2022-08-25T15:05:31.771Z,4.00
2022-08-25T15:08:16.618Z,4.15
2022-08-25T15:10:43.414Z,4.60
2022-08-25T15:13:10.459Z,4.50
2022-08-25T15:15:52.794Z,4.32
2022-08-25T15:18:21.166Z,4.50
2022-08-25T15:20:50.038Z,4.95
2022-08-25T15:23:18.432Z,4.60
2022-08-25T15:25:47.543Z,4.70
2022-08-25T15:28:17.378Z,4.82
2022-08-25T15:30:45.649Z,4.90
2022-08-25T15:33:13.213Z,4.68
2022-08-25T15:35:40.616Z,4.82
2022-08-25T15:38:07.999Z,4.90
2022-08-25T15:40:37.389Z,4.60
2022-08-25T15:43:03.976Z,4.80
2022-08-25T15:45:30.733Z,4.57
2022-08-25T15:47:57.373Z,4.75
2022-08-25T15:50:26.021Z,4.60
2022-08-25T15:52:52.956Z,4.80
2022-08-25T15:55:19.957Z,4.50
2022-08-25T15:57:47.389Z,4.75
2022-08-25T16:00:17.977Z,5.32
2022-08-25T16:02:45.615Z,5.00
2022-08-25T16:05:13.760Z,4.97
2022-08-25T16:07:42.897Z,5.30
2022-08-25T16:10:10.031Z,5.00
2022-08-25T16:12:37.551Z,5.20
2022-08-25T16:15:04.357Z,5.40
2022-08-25T16:17:30.792Z,5.28
2022-08-25T16:19:57.258Z,5.20
2022-08-25T16:22:23.663Z,5.32
2022-08-25T16:24:52.724Z,5.22
2022-08-25T16:27:19.932Z,5.10
2022-08-25T16:29:47.214Z,5.10
2022-08-25T16:32:16.840Z,5.20
2022-08-25T16:34:45.368Z,4.97
2022-08-25T16:37:14.026Z,5.53
2022-08-25T16:39:45.290Z,5.50
2022-08-25T16:42:12.945Z,5.50
2022-08-25T16:44:40.777Z,5.60
2022-08-25T16:47:08.851Z,5.50
2022-08-25T16:49:35.563Z,5.88
2022-08-25T16:52:22.317Z,5.65
2022-08-25T16:55:07.647Z,5.75
2022-08-25T16:57:34.041Z,6.07
2022-08-25T17:00:00.420Z,5.82
2022-08-25T17:02:27.018Z,5.80
2022-08-25T17:04:53.455Z,5.55
2022-08-25T17:07:23.875Z,5.70
2022-08-25T17:09:50.615Z,6.07
2022-08-25T17:12:17.465Z,5.80
2022-08-25T17:14:43.879Z,5.97
2022-08-25T17:17:10.287Z,6.32
2022-08-25T17:19:36.948Z,6.00
2022-08-25T17:22:06.935Z,6.30
2022-08-25T17:24:34.093Z,5.75
2022-08-25T17:27:02.074Z,6.30
2022-08-25T17:29:28.739Z,6.43
2022-08-25T17:31:55.400Z,6.32
2022-08-25T17:34:23.132Z,6.50
2022-08-25T17:36:51.026Z,6.90
2022-08-25T17:39:19.661Z,6.40
2022-08-25T17:41:48.688Z,6.45
2022-08-25T17:44:15.575Z,6.75
2022-08-25T17:46:47.279Z,6.20
2022-08-25T17:49:14.958Z,6.00
2022-08-25T17:51:42.063Z,6.80
2022-08-25T17:54:08.753Z,6.45
2022-08-25T17:56:35.200Z,6.30
2022-08-25T17:59:02.281Z,6.57
2022-08-25T18:01:32.891Z,6.93
2022-08-25T18:04:00.207Z,7.00
2022-08-25T18:06:29.519Z,6.75
2022-08-25T18:08:59.445Z,7.05
2022-08-25T18:11:27.817Z,6.87
2022-08-25T18:13:55.201Z,6.97
2022-08-25T18:16:23.032Z,7.28
2022-08-25T18:18:49.760Z,6.80
2022-08-25T18:21:20.284Z,6.90
2022-08-25T18:23:46.759Z,7.17
2022-08-25T18:26:15.268Z,7.15
2022-08-25T18:28:43.847Z,6.80
2022-08-25T18:31:12.192Z,7.35
2022-08-25T18:33:42.023Z,6.95
2022-08-25T18:36:09.512Z,6.93
2022-08-25T18:38:57.920Z,7.57
2022-08-25T18:41:25.068Z,7.22
2022-08-25T18:43:52.992Z,7.20
2022-08-25T18:46:19.587Z,7.40
2022-08-25T18:48:49.662Z,7.43
2022-08-25T18:51:19.577Z,7.25
2022-08-25T18:53:51.008Z,7.10
2022-08-25T18:56:19.182Z,7.00
2022-08-25T18:58:46.784Z,7.60
2022-08-25T19:01:15.374Z,7.67
2022-08-25T19:03:43.046Z,7.72
2022-08-25T19:06:10.624Z,7.63
2022-08-25T19:08:39.480Z,7.57
2022-08-25T19:11:09.697Z,7.88
2022-08-25T19:13:36.294Z,7.10
2022-08-25T19:16:11.669Z,7.30
2022-08-25T19:18:39.028Z,7.43
2022-08-25T19:21:06.249Z,7.88
2022-08-25T19:23:32.771Z,7.30
2022-08-25T19:26:00.075Z,7.80
2022-08-25T19:28:26.669Z,7.80
2022-08-25T19:30:54.078Z,8.10
2022-08-25T19:33:42.559Z,7.80
2022-08-25T19:36:08.644Z,8.20
2022-08-25T19:38:36.077Z,8.30
2022-08-25T19:41:10.950Z,8.35
2022-08-25T19:43:50.585Z,7.90
2022-08-25T19:46:33.094Z,7.68
2022-08-25T19:49:08.119Z,7.68
2022-08-25T19:51:36.868Z,7.70
2022-08-25T19:54:03.804Z,8.55
2022-08-25T19:56:32.437Z,8.52
2022-08-25T19:59:01.550Z,8.05
2022-08-25T20:01:28.254Z,8.20
2022-08-25T20:03:55.301Z,8.37
2022-08-25T20:06:23.552Z,8.10
2022-08-25T20:08:58.844Z,8.43
2022-08-25T20:11:28.401Z,8.75
2022-08-25T20:13:54.963Z,8.73
2022-08-25T20:16:21.469Z,8.20
2022-08-25T20:18:47.965Z,8.18
2022-08-25T20:21:14.896Z,8.73
2022-08-25T20:23:59.975Z,8.50
2022-08-25T20:26:26.933Z,8.40
2022-08-25T20:28:53.485Z,8.67
2022-08-25T20:31:19.977Z,8.23
2022-08-25T20:33:46.842Z,8.80
2022-08-25T20:36:16.899Z,8.50
2022-08-25T20:38:44.732Z,8.80
2022-08-25T20:41:12.311Z,8.70
2022-08-25T20:43:40.382Z,8.70
2022-08-25T20:46:07.836Z,8.90
2022-08-25T20:48:35.350Z,8.60
2022-08-25T20:51:07.410Z,8.32
2022-08-25T20:53:35.997Z,8.50
2022-08-25T20:56:07.468Z,8.52
2022-08-25T20:58:36.493Z,8.95
2022-08-25T21:01:03.572Z,9.35
2022-08-25T21:03:31.247Z,8.73
2022-08-25T21:05:58.163Z,8.87
2022-08-25T21:08:25.491Z,9.82
2022-08-25T21:10:51.964Z,9.57
2022-08-25T21:13:18.386Z,9.63
2022-08-25T21:15:48.479Z,9.10
2022-08-25T21:18:15.124Z,9.17
2022-08-25T21:20:41.627Z,10.00
2022-08-25T21:23:08.362Z,9.48
2022-08-25T21:25:41.024Z,9.55
2022-08-25T21:28:07.949Z,9.77
2022-08-25T21:30:34.790Z,9.77
2022-08-25T21:33:02.039Z,9.40
2022-08-25T21:35:28.443Z,9.68
2022-08-25T21:37:55.652Z,9.52
2022-08-25T21:40:23.345Z,9.80
2022-08-25T21:42:50.452Z,9.87
2022-08-25T21:45:16.975Z,10.15
2022-08-25T21:47:47.479Z,9.85
2022-08-25T21:50:13.999Z,9.85
2022-08-25T21:52:41.202Z,9.90
2022-08-25T21:55:16.146Z,10.20
2022-08-25T21:57:43.132Z,10.75
2022-08-25T22:00:11.436Z,10.23
2022-08-25T23:30:07.830Z,14.57
2022-08-25T23:32:35.627Z,15.10
2022-08-25T23:35:02.045Z,14.77
2022-08-25T23:37:28.604Z,14.80
2022-08-25T23:39:55.482Z,14.57
2022-08-25T23:42:21.975Z,14.35
2022-08-25T23:44:49.422Z,14.35
2022-08-25T23:47:17.190Z,14.73
2022-08-25T23:49:43.955Z,13.98
2022-08-25T23:52:10.479Z,14.30
2022-08-25T23:54:37.118Z,14.02
2022-08-25T23:57:03.710Z,14.98
2022-08-25T23:59:33.270Z,15.32
